Time;durP1;ratioP1;P1;durP2;ratioP2;P2;SDS_P1;SDS_P2;PMS_P1;PMS_P2;Temp;Humidity;BMP_temperature;BMP_pressure;BME280_temperature;BME280_humidity;BME280_pressure;Samples;Min_cycle;Max_cycle;Signal;HPM_P1;HPM_P2
2021/05/31 07:32:01;;;;;;;8.57;7.68;;;19.70;99.90;;;;;;6127549;23;20058;-85
2021/05/31 07:34:27;;;;;;;10.57;7.70;;;19.80;99.90;;;;;;6153373;23;20511;-85
2021/05/31 07:36:54;;;;;;;9.48;7.88;;;19.90;99.90;;;;;;6155438;23;20409;-86
2021/05/31 07:39:21;;;;;;;9.68;7.15;;;20.00;99.90;;;;;;6154903;23;20021;-85
2021/05/31 07:41:48;;;;;;;9.23;7.18;;;20.10;99.90;;;;;;6153871;23;20096;-84
2021/05/31 07:44:16;;;;;;;9.60;6.82;;;20.20;99.90;;;;;;6152111;23;20031;-85
2021/05/31 07:46:43;;;;;;;9.15;6.82;;;20.40;99.90;;;;;;6153874;23;20468;-86
2021/05/31 07:49:10;;;;;;;8.05;6.05;;;20.50;99.90;;;;;;6153566;23;20037;-85
2021/05/31 07:51:42;;;;;;;8.18;6.63;;;20.70;99.90;;;;;;6153759;23;20017;-86
2021/05/31 07:54:10;;;;;;;6.88;5.75;;;20.80;99.90;;;;;;6153158;23;20064;-85
2021/05/31 07:56:37;;;;;;;7.35;6.53;;;20.90;99.90;;;;;;6152120;23;20017;-86
2021/05/31 07:59:04;;;;;;;6.07;5.47;;;21.00;99.90;;;;;;6152591;23;20021;-85
2021/05/31 08:01:34;;;;;;;8.93;5.78;;;21.10;99.90;;;;;;6155138;23;20068;-85
2021/05/31 08:04:04;;;;;;;6.50;5.72;;;21.30;99.90;;;;;;6153094;23;20405;-85
2021/05/31 08:06:33;;;;;;;8.20;5.35;;;21.40;99.90;;;;;;6153403;23;20017;-85
2021/05/31 08:09:00;;;;;;;7.15;5.40;;;21.50;99.90;;;;;;6153635;23;20021;-86
2021/05/31 08:11:27;;;;;;;7.35;4.90;;;21.70;99.90;;;;;;6152888;23;20060;-86
2021/05/31 08:13:55;;;;;;;5.90;4.88;;;21.70;99.90;;;;;;6153273;23;20597;-86
2021/05/31 08:16:21;;;;;;;6.47;5.20;;;21.80;99.90;;;;;;6153261;23;20028;-86
2021/05/31 08:18:49;;;;;;;5.93;5.07;;;21.90;99.90;;;;;;6152025;23;20034;-86
2021/05/31 08:21:16;;;;;;;7.45;5.32;;;22.00;99.90;;;;;;6152846;23;20401;-86
2021/05/31 08:23:43;;;;;;;5.85;4.45;;;22.20;99.90;;;;;;6153335;23;20018;-85
2021/05/31 08:26:10;;;;;;;5.72;4.68;;;22.30;99.90;;;;;;6151931;23;20452;-86
2021/05/31 08:28:37;;;;;;;5.20;4.70;;;22.40;99.60;;;;;;6153405;23;20028;-85
2021/05/31 08:31:04;;;;;;;6.30;4.30;;;22.50;99.20;;;;;;6147910;23;20022;-86
2021/05/31 08:33:31;;;;;;;7.00;4.33;;;22.60;99.20;;;;;;6125132;23;20014;-85
2021/05/31 08:35:58;;;;;;;4.53;3.95;;;22.70;98.90;;;;;;6123661;23;20052;-86
2021/05/31 08:38:25;;;;;;;3.92;3.53;;;22.80;98.60;;;;;;6147645;23;20687;-86
2021/05/31 08:40:52;;;;;;;5.95;4.07;;;22.90;98.60;;;;;;6148362;23;20026;-85
2021/05/31 08:43:20;;;;;;;4.40;3.63;;;23.10;98.40;;;;;;6147724;23;20029;-86
2021/05/31 08:45:46;;;;;;;4.70;4.05;;;23.20;98.00;;;;;;6147510;23;20018;-86
2021/05/31 08:48:14;;;;;;;8.85;3.78;;;23.20;97.60;;;;;;6147007;23;20022;-85
2021/05/31 08:50:41;;;;;;;4.15;3.55;;;23.30;97.50;;;;;;6123473;23;20022;-86
2021/05/31 08:53:08;;;;;;;3.75;3.25;;;23.40;97.00;;;;;;6123141;23;20026;-85
2021/05/31 08:55:36;;;;;;;3.95;2.88;;;23.50;96.70;;;;;;6147802;23;20017;-86
2021/05/31 08:58:03;;;;;;;4.35;2.63;;;23.50;96.10;;;;;;6148140;23;20041;-86
2021/05/31 09:00:33;;;;;;;3.13;2.75;;;23.60;95.60;;;;;;6123261;23;20022;-86
2021/05/31 09:03:10;;;;;;;4.05;3.17;;;23.60;95.30;;;;;;6125087;23;20516;-85
2021/05/31 09:05:43;;;;;;;3.78;2.70;;;23.70;95.00;;;;;;6123385;23;20014;-86
2021/05/31 09:08:16;;;;;;;3.10;2.80;;;23.80;94.70;;;;;;6123077;23;20077;-86
2021/05/31 09:10:47;;;;;;;3.20;2.83;;;23.80;94.80;;;;;;6123421;23;20465;-86
2021/05/31 09:13:27;;;;;;;3.05;2.70;;;23.90;94.30;;;;;;6147945;23;20021;-85
2021/05/31 09:16:10;;;;;;;3.53;2.65;;;24.00;94.10;;;;;;6123661;23;20064;-86
2021/05/31 09:18:39;;;;;;;2.80;2.55;;;24.10;93.60;;;;;;6123266;23;20014;-85
2021/05/31 09:21:28;;;;;;;4.10;2.70;;;24.20;93.50;;;;;;6146830;23;20020;-85
2021/05/31 09:24:02;;;;;;;3.13;2.40;;;24.30;92.80;;;;;;6146814;23;20018;-86
2021/05/31 09:26:44;;;;;;;3.45;2.53;;;24.40;93.20;;;;;;6122395;23;20014;-85
2021/05/31 09:29:11;;;;;;;3.00;2.70;;;24.40;92.80;;;;;;6124371;23;20385;-86
2021/05/31 09:31:38;;;;;;;3.45;2.10;;;24.50;92.80;;;;;;6123606;23;20018;-85
2021/05/31 09:34:11;;;;;;;2.45;2.15;;;24.60;92.20;;;;;;6147050;23;20018;-85
2021/05/31 09:36:50;;;;;;;2.70;2.50;;;24.60;92.20;;;;;;6147545;23;20532;-85
2021/05/31 09:39:18;;;;;;;3.00;2.28;;;24.70;90.70;;;;;;6147345;23;20085;-85
2021/05/31 09:41:45;;;;;;;4.17;2.20;;;24.70;91.30;;;;;;6124730;23;20022;-88
2021/05/31 09:44:13;;;;;;;2.67;2.10;;;24.70;91.00;;;;;;6124542;23;20254;-85
2021/05/31 09:46:42;;;;;;;2.20;2.00;;;24.80;90.60;;;;;;6148008;23;20018;-86
2021/05/31 09:49:15;;;;;;;2.22;2.03;;;24.80;90.50;;;;;;6147201;23;20434;-84
2021/05/31 09:52:01;;;;;;;10.07;2.42;;;24.80;90.10;;;;;;6147194;23;20018;-86
2021/05/31 09:54:34;;;;;;;2.67;2.45;;;24.90;89.70;;;;;;6122672;23;20022;-85
2021/05/31 09:57:29;;;;;;;2.17;1.95;;;25.00;89.90;;;;;;6123972;23;20041;-86
2021/05/31 10:00:04;;;;;;;3.20;2.10;;;25.10;88.70;;;;;;6121678;23;20014;-85
2021/05/31 10:02:44;;;;;;;2.60;2.30;;;25.10;89.50;;;;;;6147426;23;20389;-85
2021/05/31 10:05:33;;;;;;;3.83;2.30;;;25.10;88.60;;;;;;6124361;23;20030;-85
2021/05/31 10:10:35;;;;;;;3.97;2.10;;;25.20;88.70;;;;;;6124289;23;20480;-85
2021/05/31 10:13:03;;;;;;;2.38;2.00;;;25.20;89.10;;;;;;6123273;23;20085;-85
2021/05/31 10:15:33;;;;;;;4.68;2.45;;;25.30;88.70;;;;;;6147094;23;20053;-84
2021/05/31 10:18:02;;;;;;;3.67;2.03;;;25.40;88.70;;;;;;6123560;23;20025;-84
2021/05/31 10:20:30;;;;;;;2.50;2.30;;;25.30;88.00;;;;;;6146938;23;20123;-84
2021/05/31 10:23:02;;;;;;;2.83;2.20;;;25.20;87.60;;;;;;6145547;23;20021;-85
2021/05/31 10:25:30;;;;;;;2.55;2.22;;;25.20;88.40;;;;;;6122348;23;20018;-85
2021/05/31 10:28:11;;;;;;;3.50;2.10;;;25.30;88.50;;;;;;6147082;23;20092;-86
2021/05/31 10:30:41;;;;;;;2.20;2.00;;;25.30;87.70;;;;;;6122185;23;20242;-85
2021/05/31 10:33:20;;;;;;;3.33;2.10;;;25.40;88.40;;;;;;6124102;23;20029;-86
2021/05/31 10:35:49;;;;;;;2.47;2.20;;;25.50;87.20;;;;;;6125422;23;20018;-86
2021/05/31 10:38:20;;;;;;;;;;;25.50;87.20;;;;;;6125006;23;20029;-84
2021/05/31 10:40:50;;;;;;;2.45;2.17;;;25.60;85.80;;;;;;6125230;23;19964;-84
2021/05/31 10:43:21;;;;;;;2.63;2.15;;;25.50;85.80;;;;;;6148861;23;20026;-85
2021/05/31 10:45:49;;;;;;;2.95;2.33;;;25.50;85.00;;;;;;6149274;23;20025;-85
2021/05/31 10:48:18;;;;;;;2.00;1.90;;;25.60;85.60;;;;;;6148892;23;20021;-84
2021/05/31 10:50:52;;;;;;;3.65;2.17;;;25.70;85.40;;;;;;6126374;23;20061;-85
2021/05/31 10:53:25;;;;;;;2.65;1.98;;;25.70;84.20;;;;;;6124368;23;20026;-84
2021/05/31 10:56:06;;;;;;;4.30;2.17;;;25.70;84.20;;;;;;6123256;23;20025;-85
2021/05/31 10:58:33;;;;;;;3.38;1.77;;;25.70;82.50;;;;;;6148747;23;20069;-88
2021/05/31 11:01:04;;;;;;;2.95;1.95;;;25.70;84.60;;;;;;6125908;23;20077;-85
2021/05/31 11:03:50;;;;;;;4.00;2.58;;;25.80;85.10;;;;;;6126094;23;20018;-85
2021/05/31 11:06:23;;;;;;;3.00;1.80;;;25.90;84.10;;;;;;6124185;23;20466;-84
2021/05/31 11:08:53;;;;;;;2.75;2.15;;;26.00;84.00;;;;;;6124897;23;20065;-86
2021/05/31 11:11:39;;;;;;;2.55;2.33;;;26.00;83.70;;;;;;6124145;23;20030;-85
2021/05/31 11:14:07;;;;;;;3.03;1.90;;;26.10;81.00;;;;;;6148698;23;20037;-86
2021/05/31 11:16:35;;;;;;;2.63;1.88;;;26.10;81.10;;;;;;6148930;23;20077;-86
2021/05/31 11:19:06;;;;;;;2.17;2.00;;;26.00;80.10;;;;;;6149413;23;20061;-86
2021/05/31 11:21:44;;;;;;;3.83;1.80;;;25.80;80.80;;;;;;6124434;23;20025;-86
2021/05/31 11:24:14;;;;;;;2.22;1.63;;;25.80;81.30;;;;;;6148462;23;20033;-86
2021/05/31 11:26:43;;;;;;;2.80;2.10;;;25.80;82.60;;;;;;6126323;23;20018;-85
2021/05/31 11:29:11;;;;;;;3.95;2.20;;;25.80;82.70;;;;;;6148592;23;20068;-87
2021/05/31 11:31:42;;;;;;;2.17;1.88;;;25.80;82.60;;;;;;6149006;23;20069;-85
2021/05/31 11:34:10;;;;;;;3.08;1.95;;;25.80;82.90;;;;;;6148500;23;20018;-87
2021/05/31 11:36:39;;;;;;;2.55;1.70;;;25.70;82.20;;;;;;6147708;23;20069;-87
2021/05/31 11:39:17;;;;;;;4.03;1.90;;;25.70;81.80;;;;;;6123595;23;20532;-87
2021/05/31 11:41:49;;;;;;;2.00;1.90;;;25.50;79.20;;;;;;6148633;23;20014;-87
2021/05/31 11:44:30;;;;;;;2.03;1.70;;;25.40;80.80;;;;;;6148311;23;20029;-87
2021/05/31 11:47:03;;;;;;;3.13;1.50;;;25.40;81.50;;;;;;6148166;23;20385;-87
2021/05/31 11:49:36;;;;;;;2.00;1.60;;;25.40;81.70;;;;;;6148556;23;20010;-86
2021/05/31 11:52:12;;;;;;;2.72;1.80;;;25.40;81.60;;;;;;6148763;23;20081;-86
2021/05/31 11:54:41;;;;;;;3.90;1.95;;;25.40;82.00;;;;;;6122617;23;20457;-87
2021/05/31 11:57:10;;;;;;;3.50;1.83;;;25.30;81.40;;;;;;6148195;23;20018;-86
2021/05/31 11:59:42;;;;;;;3.38;1.60;;;25.20;80.70;;;;;;6148640;23;20018;-85
2021/05/31 12:02:23;;;;;;;3.13;1.70;;;25.20;80.50;;;;;;6146421;23;20022;-86
2021/05/31 12:04:51;;;;;;;3.13;1.80;;;25.30;80.40;;;;;;6126022;23;20092;-86
2021/05/31 12:07:22;;;;;;;;;;;25.50;80.70;;;;;;6148308;23;20022;-86
2021/05/31 12:09:49;;;;;;;3.13;1.70;;;25.70;80.30;;;;;;6148221;23;19921;-85
2021/05/31 12:12:18;;;;;;;2.08;1.75;;;25.90;80.50;;;;;;6125204;23;20022;-85
2021/05/31 12:14:46;;;;;;;3.83;1.80;;;26.00;81.00;;;;;;6125763;23;20390;-87
2021/05/31 12:17:14;;;;;;;3.85;1.77;;;26.10;81.40;;;;;;6123332;23;20081;-86
2021/05/31 12:19:43;;;;;;;3.40;1.80;;;26.10;81.00;;;;;;6148451;23;20022;-86
2021/05/31 12:22:11;;;;;;;2.63;1.70;;;26.20;80.90;;;;;;6147939;23;20018;-85
2021/05/31 12:24:49;;;;;;;2.00;1.75;;;26.20;80.10;;;;;;6148495;23;20069;-85
2021/05/31 12:27:25;;;;;;;3.63;2.00;;;26.10;79.10;;;;;;6123568;23;20097;-86
2021/05/31 12:29:54;;;;;;;1.67;1.58;;;26.00;78.10;;;;;;6148343;23;20018;-85
2021/05/31 12:32:23;;;;;;;4.07;1.90;;;25.90;79.70;;;;;;6122932;23;20018;-86
2021/05/31 12:34:51;;;;;;;2.90;1.83;;;25.90;80.20;;;;;;6125660;23;20021;-87
2021/05/31 12:37:23;;;;;;;3.60;1.75;;;25.90;80.80;;;;;;6125087;23;20026;-86
2021/05/31 12:39:51;;;;;;;1.90;1.63;;;25.80;80.00;;;;;;6147985;23;20018;-86
2021/05/31 12:42:25;;;;;;;;;;;25.70;79.20;;;;;;6148266;23;20477;-86
2021/05/31 12:45:00;;;;;;;2.42;1.70;;;25.60;79.60;;;;;;6123963;23;20404;-87
2021/05/31 12:47:34;;;;;;;2.72;1.50;;;25.70;78.80;;;;;;6124491;23;20022;-87
2021/05/31 12:50:05;;;;;;;2.45;1.63;;;25.70;77.20;;;;;;6147931;23;20029;-87
2021/05/31 12:52:37;;;;;;;3.58;1.45;;;25.80;77.70;;;;;;6123208;23;20327;-87
2021/05/31 12:55:09;;;;;;;1.77;1.40;;;25.80;77.50;;;;;;6123757;23;20127;-86
2021/05/31 12:57:47;;;;;;;2.72;1.60;;;25.70;78.00;;;;;;6123494;23;20074;-87
2021/05/31 13:00:18;;;;;;;1.70;1.60;;;25.50;78.80;;;;;;6121590;23;20026;-87
2021/05/31 13:02:51;;;;;;;1.90;1.80;;;25.50;79.30;;;;;;6148431;23;20076;-87
2021/05/31 13:05:21;;;;;;;1.80;1.30;;;25.70;79.50;;;;;;6147277;23;20022;-87
2021/05/31 13:07:50;;;;;;;1.40;1.30;;;25.80;78.20;;;;;;6147758;23;20017;-87
2021/05/31 13:10:20;;;;;;;1.70;1.30;;;25.90;77.00;;;;;;6147691;23;20022;-87
2021/05/31 13:12:51;;;;;;;1.40;1.27;;;26.00;77.00;;;;;;6148235;23;20026;-87
2021/05/31 13:15:19;;;;;;;2.50;1.40;;;25.90;76.00;;;;;;6123243;23;20049;-87
2021/05/31 13:17:50;;;;;;;3.10;1.45;;;25.90;76.90;;;;;;6147763;23;20029;-86
2021/05/31 13:20:18;;;;;;;1.50;1.40;;;25.90;77.00;;;;;;6147304;23;20030;-87
2021/05/31 13:22:56;;;;;;;2.10;1.40;;;25.90;76.00;;;;;;6123907;23;20018;-87
2021/05/31 13:25:23;;;;;;;1.40;1.30;;;26.00;75.60;;;;;;6147695;23;20073;-86
2021/05/31 13:27:49;;;;;;;1.83;1.50;;;26.10;76.10;;;;;;6123393;23;20104;-87
2021/05/31 13:30:19;;;;;;;2.22;1.60;;;26.10;76.20;;;;;;6147446;23;20111;-87
2021/05/31 13:32:55;;;;;;;2.22;1.40;;;26.30;76.70;;;;;;6146328;23;20089;-86
2021/05/31 13:35:26;;;;;;;3.25;1.65;;;26.20;75.10;;;;;;6147383;23;20058;-87
2021/05/31 13:37:58;;;;;;;2.83;1.40;;;26.00;75.50;;;;;;6123298;23;20065;-87
2021/05/31 13:40:30;;;;;;;2.45;1.52;;;25.90;75.50;;;;;;6124741;23;20033;-87
2021/05/31 13:43:05;;;;;;;1.83;1.33;;;25.90;77.40;;;;;;6122359;23;20018;-87
2021/05/31 13:45:34;;;;;;;2.67;1.60;;;25.90;77.30;;;;;;6147521;23;20014;-86
2021/05/31 13:48:03;;;;;;;1.75;1.60;;;25.90;75.90;;;;;;6147748;23;20022;-86
2021/05/31 13:50:31;;;;;;;1.63;1.38;;;25.70;74.30;;;;;;6146433;23;20017;-87
2021/05/31 13:52:59;;;;;;;2.03;1.52;;;25.70;74.60;;;;;;6125180;23;20014;-87
2021/05/31 13:55:28;;;;;;;1.50;1.40;;;25.60;75.10;;;;;;6147540;23;20018;-88
2021/05/31 13:57:56;;;;;;;1.80;1.50;;;25.50;76.60;;;;;;6148259;23;20018;-87
2021/05/31 14:00:25;;;;;;;2.88;1.58;;;25.50;77.80;;;;;;6122562;23;20022;-87
2021/05/31 14:02:57;;;;;;;1.45;1.35;;;25.50;77.50;;;;;;6147892;23;20398;-87
2021/05/31 14:05:26;;;;;;;2.42;1.45;;;25.60;77.10;;;;;;6122751;23;20041;-87
2021/05/31 14:07:54;;;;;;;1.48;1.38;;;25.60;77.00;;;;;;6147682;23;20458;-87
2021/05/31 14:10:22;;;;;;;2.70;1.30;;;25.50;76.10;;;;;;6121585;23;20069;-86
2021/05/31 14:12:49;;;;;;;2.47;1.42;;;25.50;75.60;;;;;;6125424;23;20528;-86
2021/05/31 14:15:18;;;;;;;1.73;1.42;;;25.50;76.40;;;;;;6148967;23;20022;-87
2021/05/31 14:17:46;;;;;;;4.13;1.55;;;25.60;76.80;;;;;;6125348;23;20390;-86
2021/05/31 14:20:15;;;;;;;1.50;1.40;;;25.70;76.40;;;;;;6149455;23;20026;-87
2021/05/31 14:22:42;;;;;;;;;;;25.80;75.60;;;;;;6150024;23;20022;-87
2021/05/31 14:25:12;;;;;;;2.15;1.38;;;25.80;73.20;;;;;;6149134;23;19956;-86
2021/05/31 14:27:40;;;;;;;2.50;1.38;;;25.90;75.30;;;;;;6125078;23;20018;-86
2021/05/31 14:30:10;;;;;;;1.95;1.38;;;26.00;74.90;;;;;;6148970;23;20041;-86
2021/05/31 14:32:37;;;;;;;2.00;1.30;;;26.00;74.70;;;;;;6124729;23;20037;-86
2021/05/31 14:35:06;;;;;;;2.23;1.50;;;26.20;74.80;;;;;;6149649;23;20447;-87
2021/05/31 14:37:33;;;;;;;1.83;1.50;;;26.20;74.00;;;;;;6124793;23;20237;-87
2021/05/31 14:40:00;;;;;;;2.70;1.40;;;26.30;73.90;;;;;;6148837;23;20534;-87
2021/05/31 14:42:27;;;;;;;1.75;1.50;;;26.20;72.60;;;;;;6148468;23;20510;-87
2021/05/31 14:44:54;;;;;;;2.00;1.50;;;26.00;73.20;;;;;;6149428;23;20013;-87
2021/05/31 14:47:21;;;;;;;2.97;1.40;;;26.10;73.80;;;;;;6146466;23;20026;-87
2021/05/31 14:49:49;;;;;;;1.33;1.20;;;26.10;74.00;;;;;;6125555;23;20017;-86
2021/05/31 14:52:16;;;;;;;2.07;1.40;;;26.20;73.50;;;;;;6124758;23;20065;-87
2021/05/31 14:54:43;;;;;;;1.58;1.48;;;26.10;73.60;;;;;;6149583;23;20520;-86
2021/05/31 14:57:12;;;;;;;1.52;1.30;;;26.10;73.20;;;;;;6124347;23;20079;-86
2021/05/31 14:59:39;;;;;;;1.50;1.35;;;26.10;72.60;;;;;;6149615;23;20054;-87
2021/05/31 15:02:07;;;;;;;2.38;1.60;;;26.10;72.20;;;;;;6125776;23;20022;-87
2021/05/31 15:04:34;;;;;;;2.72;1.60;;;26.10;72.20;;;;;;6149387;23;20034;-86
2021/05/31 15:07:01;;;;;;;6.28;1.67;;;26.00;71.40;;;;;;6126538;23;20493;-86
2021/05/31 15:09:28;;;;;;;3.58;1.60;;;25.90;72.60;;;;;;6148519;23;20449;-87
2021/05/31 15:11:57;;;;;;;3.20;1.77;;;25.80;72.70;;;;;;6124974;23;20014;-86
2021/05/31 15:14:24;;;;;;;1.67;1.50;;;25.80;73.80;;;;;;6147424;23;20092;-87
2021/05/31 15:16:52;;;;;;;2.40;1.52;;;25.90;73.90;;;;;;6149133;23;20017;-87
2021/05/31 15:19:19;;;;;;;2.90;1.45;;;26.00;74.00;;;;;;6148677;23;20747;-87
2021/05/31 15:21:48;;;;;;;2.08;1.55;;;26.00;73.90;;;;;;6148430;23;20065;-85
2021/05/31 15:24:14;;;;;;;3.17;1.55;;;26.00;73.90;;;;;;6123909;23;20026;-85
2021/05/31 15:26:41;;;;;;;1.88;1.60;;;26.00;74.10;;;;;;6124151;23;20022;-86
2021/05/31 15:29:28;;;;;;;3.10;1.48;;;26.00;74.30;;;;;;6144464;23;20175;-87
2021/05/31 15:31:55;;;;;;;4.40;1.25;;;26.10;74.40;;;;;;6148315;23;20544;-86
2021/05/31 15:34:22;;;;;;;1.55;1.45;;;26.10;73.10;;;;;;6148376;23;20744;-87
2021/05/31 15:36:49;;;;;;;2.05;1.50;;;26.10;73.10;;;;;;6125992;23;20018;-85
2021/05/31 15:39:16;;;;;;;2.70;1.40;;;26.10;73.70;;;;;;6125301;23;20022;-86
2021/05/31 15:41:43;;;;;;;1.80;1.60;;;26.10;72.90;;;;;;6126091;23;20022;-88
2021/05/31 15:44:10;;;;;;;2.17;1.38;;;26.20;72.20;;;;;;6147105;23;20461;-85
2021/05/31 15:46:36;;;;;;;5.15;1.70;;;26.10;71.50;;;;;;6125919;23;20017;-86
2021/05/31 15:49:04;;;;;;;2.35;1.77;;;26.10;72.00;;;;;;6125103;23;20021;-87
2021/05/31 15:51:31;;;;;;;2.15;1.60;;;26.20;72.40;;;;;;6121212;23;20362;-86
2021/05/31 15:53:58;;;;;;;2.42;1.40;;;26.20;72.50;;;;;;6123356;23;20022;-88
2021/05/31 15:56:25;;;;;;;1.52;1.30;;;26.30;73.10;;;;;;6143847;23;20588;-89
2021/05/31 15:58:51;;;;;;;1.67;1.55;;;26.40;73.50;;;;;;6121621;23;20041;-90
2021/05/31 16:01:18;;;;;;;2.22;1.77;;;26.40;73.70;;;;;;6144885;23;20520;-88
2021/05/31 16:03:46;;;;;;;4.57;1.73;;;26.50;73.20;;;;;;6144551;23;20092;-87
2021/05/31 16:06:13;;;;;;;2.65;1.60;;;26.60;73.50;;;;;;6123091;23;20469;-87
2021/05/31 16:08:40;;;;;;;2.78;1.80;;;26.60;74.20;;;;;;6146084;23;20536;-88
2021/05/31 16:11:10;;;;;;;6.45;2.10;;;26.70;75.10;;;;;;6123202;23;20319;-88
2021/05/31 16:13:38;;;;;;;5.95;2.13;;;26.70;76.00;;;;;;6119953;23;20068;-88
2021/05/31 16:16:06;;;;;;;3.63;2.00;;;26.60;75.90;;;;;;6144366;23;20664;-86
2021/05/31 16:18:33;;;;;;;3.47;1.88;;;26.60;76.80;;;;;;6121851;23;20465;-88
2021/05/31 16:21:01;;;;;;;3.08;1.98;;;26.50;76.10;;;;;;6145252;23;20033;-87
2021/05/31 16:23:36;;;;;;;2.70;1.50;;;26.40;76.00;;;;;;6145094;23;20030;-88
2021/05/31 16:26:15;;;;;;;2.42;2.10;;;26.40;76.00;;;;;;6142495;23;20021;-88
2021/05/31 16:28:42;;;;;;;2.85;2.25;;;26.30;75.90;;;;;;6145571;23;20026;-84
2021/05/31 16:31:09;;;;;;;2.92;1.80;;;26.40;76.10;;;;;;6121468;23;20076;-86
2021/05/31 16:33:37;;;;;;;4.80;2.10;;;26.30;75.70;;;;;;6145370;23;20064;-85
2021/05/31 16:36:04;;;;;;;3.63;2.15;;;26.30;76.40;;;;;;6144820;23;20500;-86
2021/05/31 16:38:31;;;;;;;2.37;1.90;;;26.30;76.30;;;;;;6145890;23;20481;-85
2021/05/31 16:41:00;;;;;;;3.92;2.08;;;26.20;75.80;;;;;;6122519;23;20583;-86
2021/05/31 16:43:27;;;;;;;;;;;26.20;76.10;;;;;;6145540;23;20436;-85
2021/05/31 16:45:54;;;;;;;4.15;1.90;;;26.30;76.80;;;;;;6119744;23;19925;-86
2021/05/31 16:48:21;;;;;;;3.35;1.75;;;26.20;76.10;;;;;;6122442;23;20026;-86
2021/05/31 16:50:48;;;;;;;2.33;1.63;;;26.30;75.90;;;;;;6122867;23;20014;-86
2021/05/31 16:53:15;;;;;;;3.95;1.80;;;26.30;75.90;;;;;;6120916;23;20069;-86
2021/05/31 16:55:42;;;;;;;2.28;2.08;;;26.30;75.70;;;;;;6145570;23;20076;-87
2021/05/31 16:58:09;;;;;;;4.28;1.80;;;26.20;75.80;;;;;;6122281;23;20022;-86
2021/05/31 17:00:36;;;;;;;3.83;2.05;;;26.20;75.90;;;;;;6145487;23;20073;-85
2021/05/31 17:03:03;;;;;;;2.95;1.70;;;26.20;76.10;;;;;;6144574;23;20081;-86
2021/05/31 17:05:32;;;;;;;3.55;2.08;;;26.10;75.80;;;;;;6122330;23;20476;-86
2021/05/31 17:08:06;;;;;;;3.53;2.05;;;26.10;75.70;;;;;;6145339;23;20018;-87
2021/05/31 17:21:15;;;;;;;3.28;1.70;;;25.80;75.70;;;;;;6122055;23;20228;-86
2021/05/31 17:23:42;;;;;;;2.85;2.10;;;25.80;74.50;;;;;;6145515;23;20382;-87
2021/05/31 17:26:09;;;;;;;7.30;5.43;;;25.70;74.70;;;;;;6122093;23;20024;-87
2021/05/31 17:28:37;;;;;;;2.78;2.22;;;25.70;75.00;;;;;;6145790;23;20053;-86
2021/05/31 17:33:31;;;;;;;3.65;1.85;;;26.00;74.70;;;;;;6122313;23;20457;-87
2021/05/31 17:36:00;;;;;;;2.07;1.67;;;26.00;74.40;;;;;;6144104;23;20014;-86
2021/05/31 17:38:27;;;;;;;3.60;2.85;;;26.10;74.90;;;;;;6143523;23;20022;-86
2021/05/31 17:40:54;;;;;;;19.25;15.93;;;26.30;74.70;;;;;;6142943;23;20436;-85
2021/05/31 17:43:21;;;;;;;12.55;11.32;;;26.40;74.90;;;;;;6144747;23;20465;-85
2021/05/31 17:45:49;;;;;;;2.17;1.95;;;26.60;74.60;;;;;;6121471;23;20022;-85
2021/05/31 17:48:17;;;;;;;2.80;1.63;;;26.80;74.30;;;;;;6144763;23;20073;-85
2021/05/31 17:50:44;;;;;;;5.28;2.20;;;27.10;73.80;;;;;;6144900;23;20339;-85
2021/05/31 17:53:13;;;;;;;2.03;1.63;;;27.20;72.90;;;;;;6144486;23;20029;-83
2021/05/31 17:55:40;;;;;;;;;;;27.50;72.60;;;;;;6122086;23;20021;-84
2021/05/31 17:58:09;;;;;;;2.63;1.70;;;27.60;71.00;;;;;;6118876;23;19941;-84
2021/05/31 18:00:38;;;;;;;5.05;2.15;;;27.50;71.20;;;;;;6120807;23;20022;-85
2021/05/31 18:03:09;;;;;;;3.00;1.67;;;27.60;71.00;;;;;;6139844;23;20049;-85
2021/05/31 18:05:36;;;;;;;1.88;1.70;;;27.80;71.00;;;;;;6142211;23;20018;-84
2021/05/31 18:08:08;;;;;;;2.10;1.90;;;28.20;70.80;;;;;;6142128;23;20473;-83
2021/05/31 18:10:36;;;;;;;2.50;1.80;;;28.30;70.40;;;;;;6116726;23;20014;-86
2021/05/31 18:13:03;;;;;;;2.70;1.87;;;28.50;70.80;;;;;;6141699;23;20080;-86
2021/05/31 18:15:30;;;;;;;2.58;1.67;;;28.50;70.20;;;;;;6117367;23;20022;-85
2021/05/31 18:17:57;;;;;;;4.13;1.83;;;28.80;69.70;;;;;;6142377;23;20012;-85
2021/05/31 18:20:25;;;;;;;2.38;1.67;;;28.90;68.70;;;;;;6141705;23;20460;-85
2021/05/31 18:22:53;;;;;;;3.00;1.80;;;29.00;68.50;;;;;;6145099;23;20042;-85
2021/05/31 18:25:21;;;;;;;;;;;29.00;68.00;;;;;;6122253;23;20073;-87
2021/05/31 18:27:49;;;;;;;3.03;1.70;;;29.00;66.80;;;;;;6120935;23;19928;-85
2021/05/31 18:30:24;;;;;;;3.33;1.70;;;29.20;67.30;;;;;;6144081;23;20481;-86
2021/05/31 18:32:56;;;;;;;2.65;1.75;;;29.20;67.10;;;;;;6121507;23;20796;-85
2021/05/31 18:35:36;;;;;;;4.72;1.95;;;29.20;67.40;;;;;;6144232;23;20060;-84
2021/05/31 18:38:04;;;;;;;3.42;1.88;;;29.20;67.00;;;;;;6142416;23;20018;-85
2021/05/31 18:40:31;;;;;;;3.10;1.60;;;29.20;66.80;;;;;;6119451;23;20010;-84
2021/05/31 18:42:58;;;;;;;2.92;1.60;;;29.30;66.60;;;;;;6144046;23;20014;-85
2021/05/31 18:45:25;;;;;;;1.75;1.40;;;29.40;66.50;;;;;;6119213;23;20022;-86
2021/05/31 18:47:51;;;;;;;2.65;1.60;;;29.50;66.20;;;;;;6144621;23;20013;-85
2021/05/31 18:50:18;;;;;;;1.98;1.40;;;29.60;65.50;;;;;;6141980;23;20029;-83
2021/05/31 18:52:45;;;;;;;2.47;1.48;;;29.90;65.60;;;;;;6144469;23;20033;-84
2021/05/31 18:55:12;;;;;;;3.10;1.80;;;30.20;65.10;;;;;;6143933;23;20552;-84
2021/05/31 18:57:39;;;;;;;2.47;1.75;;;30.40;64.70;;;;;;6121613;23;20065;-83
2021/05/31 19:00:09;;;;;;;1.92;1.27;;;30.40;64.70;;;;;;6145607;23;20029;-84
2021/05/31 19:02:36;;;;;;;1.92;1.50;;;30.20;64.50;;;;;;6146419;23;20030;-84
2021/05/31 19:05:06;;;;;;;2.30;1.40;;;30.00;64.60;;;;;;6123596;23;20017;-83
2021/05/31 19:07:35;;;;;;;3.55;1.60;;;29.70;64.80;;;;;;6122223;23;20021;-85
2021/05/31 19:10:05;;;;;;;2.70;1.45;;;29.50;65.20;;;;;;6145755;23;20049;-87
2021/05/31 19:12:32;;;;;;;2.53;1.38;;;29.50;65.50;;;;;;6120265;23;20018;-85
2021/05/31 19:14:59;;;;;;;3.50;1.50;;;29.20;65.90;;;;;;6121722;23;20331;-84
2021/05/31 19:17:26;;;;;;;2.60;1.70;;;28.90;66.40;;;;;;6122746;23;20032;-83
2021/05/31 19:19:53;;;;;;;2.42;1.67;;;28.40;67.00;;;;;;6145855;23;20018;-84
2021/05/31 19:22:21;;;;;;;5.55;2.08;;;27.90;67.70;;;;;;6144137;23;20089;-83
2021/05/31 19:24:48;;;;;;;1.88;1.75;;;27.40;68.40;;;;;;6144136;23;20501;-83
2021/05/31 19:27:15;;;;;;;2.33;2.13;;;26.90;69.50;;;;;;6121322;23;20022;-83
2021/05/31 19:29:42;;;;;;;2.60;2.08;;;26.50;70.40;;;;;;6120643;23;20045;-83
2021/05/31 19:32:09;;;;;;;3.85;2.22;;;26.00;71.20;;;;;;6118223;23;20022;-84
2021/05/31 19:34:36;;;;;;;2.95;2.00;;;25.60;72.10;;;;;;6121324;23;20113;-84
2021/05/31 19:37:04;;;;;;;4.07;2.00;;;25.30;73.10;;;;;;6143539;23;20017;-84
2021/05/31 19:39:31;;;;;;;3.83;2.08;;;25.00;73.90;;;;;;6115566;23;20013;-85
2021/05/31 19:41:58;;;;;;;3.63;2.20;;;24.80;74.80;;;;;;6118964;23;20072;-82
2021/05/31 19:44:25;;;;;;;3.35;1.90;;;24.50;75.60;;;;;;6121452;23;20069;-84
2021/05/31 19:46:54;;;;;;;4.85;2.40;;;24.10;76.50;;;;;;6144676;23;20089;-83
2021/05/31 19:49:21;;;;;;;2.67;2.45;;;23.80;77.30;;;;;;6121963;23;20053;-82
2021/05/31 19:51:47;;;;;;;5.00;2.58;;;23.50;77.80;;;;;;6120357;23;20018;-83
2021/05/31 19:54:22;;;;;;;2.85;2.47;;;23.30;78.60;;;;;;6121568;23;20461;-83
2021/05/31 19:57:07;;;;;;;3.13;2.03;;;23.10;79.40;;;;;;6120575;23;20026;-82
2021/05/31 20:02:19;;;;;;;3.67;2.30;;;22.70;80.70;;;;;;6120977;23;20018;-82
2021/05/31 20:04:46;;;;;;;3.58;2.40;;;22.50;81.40;;;;;;6144807;23;20092;-83
2021/05/31 20:09:44;;;;;;;4.22;2.45;;;22.20;82.30;;;;;;6120837;23;20026;-81
2021/05/31 20:12:12;;;;;;;3.78;2.40;;;22.00;82.90;;;;;;6121168;23;20399;-81
2021/05/31 20:14:41;;;;;;;3.35;2.20;;;21.80;83.70;;;;;;6144008;23;20025;-83
2021/05/31 20:17:08;;;;;;;3.28;2.13;;;21.60;84.60;;;;;;6119566;23;20026;-82
2021/05/31 20:19:35;;;;;;;3.55;2.10;;;21.40;85.10;;;;;;6144774;23;20518;-81
2021/05/31 20:22:04;;;;;;;3.92;2.40;;;21.20;85.40;;;;;;6144916;23;20057;-83
2021/05/31 20:24:31;;;;;;;3.58;2.40;;;21.10;86.30;;;;;;6118898;23;20018;-84
2021/05/31 20:26:59;;;;;;;3.65;2.42;;;20.90;86.80;;;;;;6142295;23;20042;-83
2021/05/31 20:29:27;;;;;;;4.78;2.42;;;20.80;87.10;;;;;;6121351;23;20025;-84
2021/05/31 20:31:54;;;;;;;3.47;2.40;;;20.60;87.40;;;;;;6141942;23;20026;-84
2021/05/31 20:34:22;;;;;;;3.58;2.50;;;20.40;87.60;;;;;;6118760;23;20441;-84
2021/05/31 20:36:55;;;;;;;3.78;2.55;;;20.30;88.00;;;;;;6140177;23;20048;-84
2021/05/31 20:39:23;;;;;;;3.63;2.50;;;20.10;88.50;;;;;;6118939;23;20069;-83
2021/05/31 20:41:50;;;;;;;2.75;2.55;;;20.00;88.70;;;;;;6144140;23;20022;-83
2021/05/31 20:44:16;;;;;;;3.50;2.50;;;19.90;88.90;;;;;;6121410;23;20461;-83
2021/05/31 20:46:45;;;;;;;3.33;2.70;;;19.80;89.60;;;;;;6144442;23;20025;-83
2021/05/31 20:49:13;;;;;;;3.38;2.80;;;19.60;90.10;;;;;;6120756;23;20041;-82
2021/05/31 20:51:41;;;;;;;3.43;2.73;;;19.50;90.40;;;;;;6145244;23;20073;-83